sensor_id;sensor_type;location;lat;lon;timestamp;P1;durP1;ratioP1;P2;durP2;ratioP2
6735;SDS011;3405;50.576;12.364;2023-09-19T00:01:47;0.80;;;0.80;;
6735;SDS011;3405;50.576;12.364;2023-09-19T00:04:13;1.48;;;0.75;;
6735;SDS011;3405;50.576;12.364;2023-09-19T00:06:39;1.23;;;0.65;;
6735;SDS011;3405;50.576;12.364;2023-09-19T00:09:06;5.13;;;0.98;;
6735;SDS011;3405;50.576;12.364;2023-09-19T00:11:36;0.93;;;0.90;;
6735;SDS011;3405;50.576;12.364;2023-09-19T00:14:02;3.40;;;0.90;;
6735;SDS011;3405;50.576;12.364;2023-09-19T00:16:29;1.17;;;0.80;;
6735;SDS011;3405;50.576;12.364;2023-09-19T00:18:57;1.08;;;0.70;;
6735;SDS011;3405;50.576;12.364;2023-09-19T00:21:24;1.15;;;0.77;;
6735;SDS011;3405;50.576;12.364;2023-09-19T00:23:50;1.75;;;0.70;;
6735;SDS011;3405;50.576;12.364;2023-09-19T00:26:16;1.35;;;0.85;;
6735;SDS011;3405;50.576;12.364;2023-09-19T00:28:43;1.15;;;0.77;;
6735;SDS011;3405;50.576;12.364;2023-09-19T00:31:09;1.15;;;0.80;;
6735;SDS011;3405;50.576;12.364;2023-09-19T00:33:35;1.27;;;0.85;;
6735;SDS011;3405;50.576;12.364;2023-09-19T00:36:01;2.17;;;0.80;;
6735;SDS011;3405;50.576;12.364;2023-09-19T00:38:30;2.55;;;1.00;;
6735;SDS011;3405;50.576;12.364;2023-09-19T00:40:56;2.22;;;0.90;;
6735;SDS011;3405;50.576;12.364;2023-09-19T00:43:24;1.42;;;0.75;;
6735;SDS011;3405;50.576;12.364;2023-09-19T00:45:52;2.88;;;0.90;;
6735;SDS011;3405;50.576;12.364;2023-09-19T00:48:19;1.20;;;0.80;;
6735;SDS011;3405;50.576;12.364;2023-09-19T00:50:46;1.15;;;0.90;;
6735;SDS011;3405;50.576;12.364;2023-09-19T00:53:14;1.20;;;0.95;;
6735;SDS011;3405;50.576;12.364;2023-09-19T00:55:43;1.35;;;0.80;;
6735;SDS011;3405;50.576;12.364;2023-09-19T00:58:09;3.22;;;1.02;;
6735;SDS011;3405;50.576;12.364;2023-09-19T01:00:35;1.83;;;0.80;;
6735;SDS011;3405;50.576;12.364;2023-09-19T01:03:02;0.73;;;0.55;;
6735;SDS011;3405;50.576;12.364;2023-09-19T01:05:28;1.45;;;0.70;;
6735;SDS011;3405;50.576;12.364;2023-09-19T01:07:57;1.17;;;0.70;;
6735;SDS011;3405;50.576;12.364;2023-09-19T01:10:23;1.52;;;0.82;;
6735;SDS011;3405;50.576;12.364;2023-09-19T01:18:00;1.83;;;1.00;;
6735;SDS011;3405;50.576;12.364;2023-09-19T01:20:37;2.45;;;0.80;;
6735;SDS011;3405;50.576;12.364;2023-09-19T01:23:14;3.00;;;0.90;;
6735;SDS011;3405;50.576;12.364;2023-09-19T01:26:00;1.95;;;0.88;;
6735;SDS011;3405;50.576;12.364;2023-09-19T01:31:03;2.20;;;0.77;;
6735;SDS011;3405;50.576;12.364;2023-09-19T01:36:16;1.58;;;0.70;;
6735;SDS011;3405;50.576;12.364;2023-09-19T01:38:42;1.27;;;0.73;;
6735;SDS011;3405;50.576;12.364;2023-09-19T01:41:09;0.95;;;0.70;;
6735;SDS011;3405;50.576;12.364;2023-09-19T01:43:41;0.95;;;0.70;;
6735;SDS011;3405;50.576;12.364;2023-09-19T01:46:29;0.75;;;0.70;;
6735;SDS011;3405;50.576;12.364;2023-09-19T01:51:32;0.90;;;0.65;;
6735;SDS011;3405;50.576;12.364;2023-09-19T01:54:00;1.63;;;0.80;;
6735;SDS011;3405;50.576;12.364;2023-09-19T01:56:30;2.75;;;1.13;;
6735;SDS011;3405;50.576;12.364;2023-09-19T01:58:59;1.17;;;0.75;;
6735;SDS011;3405;50.576;12.364;2023-09-19T02:01:25;1.33;;;0.60;;
6735;SDS011;3405;50.576;12.364;2023-09-19T02:03:51;1.23;;;0.80;;
6735;SDS011;3405;50.576;12.364;2023-09-19T02:06:17;0.88;;;0.70;;
6735;SDS011;3405;50.576;12.364;2023-09-19T02:08:44;1.17;;;0.90;;
6735;SDS011;3405;50.576;12.364;2023-09-19T02:11:10;1.08;;;0.70;;
6735;SDS011;3405;50.576;12.364;2023-09-19T02:13:36;1.33;;;0.60;;
6735;SDS011;3405;50.576;12.364;2023-09-19T02:16:03;2.20;;;0.75;;
6735;SDS011;3405;50.576;12.364;2023-09-19T02:18:29;0.73;;;0.57;;
6735;SDS011;3405;50.576;12.364;2023-09-19T02:20:55;1.35;;;0.82;;
6735;SDS011;3405;50.576;12.364;2023-09-19T02:23:23;1.38;;;0.90;;
6735;SDS011;3405;50.576;12.364;2023-09-19T02:25:56;0.77;;;0.60;;
6735;SDS011;3405;50.576;12.364;2023-09-19T02:28:31;2.90;;;1.10;;
6735;SDS011;3405;50.576;12.364;2023-09-19T02:30:57;1.48;;;1.00;;
6735;SDS011;3405;50.576;12.364;2023-09-19T02:33:23;1.77;;;0.95;;
6735;SDS011;3405;50.576;12.364;2023-09-19T02:35:49;1.02;;;0.85;;
6735;SDS011;3405;50.576;12.364;2023-09-19T02:38:15;1.15;;;0.80;;
6735;SDS011;3405;50.576;12.364;2023-09-19T02:40:46;1.08;;;0.65;;
6735;SDS011;3405;50.576;12.364;2023-09-19T02:43:12;1.17;;;0.80;;
6735;SDS011;3405;50.576;12.364;2023-09-19T02:45:38;1.75;;;0.80;;
6735;SDS011;3405;50.576;12.364;2023-09-19T02:48:04;0.70;;;0.70;;
6735;SDS011;3405;50.576;12.364;2023-09-19T02:50:32;2.45;;;0.88;;
6735;SDS011;3405;50.576;12.364;2023-09-19T02:52:58;0.68;;;0.68;;
6735;SDS011;3405;50.576;12.364;2023-09-19T02:55:25;0.77;;;0.60;;
6735;SDS011;3405;50.576;12.364;2023-09-19T02:57:51;1.63;;;0.80;;
6735;SDS011;3405;50.576;12.364;2023-09-19T03:00:19;1.15;;;0.85;;
6735;SDS011;3405;50.576;12.364;2023-09-19T03:02:46;0.65;;;0.65;;
6735;SDS011;3405;50.576;12.364;2023-09-19T03:05:12;1.27;;;1.00;;
6735;SDS011;3405;50.576;12.364;2023-09-19T03:07:38;0.63;;;0.60;;
6735;SDS011;3405;50.576;12.364;2023-09-19T03:10:07;1.63;;;0.82;;
6735;SDS011;3405;50.576;12.364;2023-09-19T03:12:33;1.20;;;0.98;;
6735;SDS011;3405;50.576;12.364;2023-09-19T03:14:59;1.42;;;0.70;;
6735;SDS011;3405;50.576;12.364;2023-09-19T03:17:25;0.80;;;0.80;;
6735;SDS011;3405;50.576;12.364;2023-09-19T03:19:52;1.48;;;0.93;;
6735;SDS011;3405;50.576;12.364;2023-09-19T03:22:19;0.95;;;0.90;;
6735;SDS011;3405;50.576;12.364;2023-09-19T03:24:45;3.70;;;0.80;;
6735;SDS011;3405;50.576;12.364;2023-09-19T03:27:12;0.93;;;0.80;;
6735;SDS011;3405;50.576;12.364;2023-09-19T03:29:39;1.95;;;0.80;;
6735;SDS011;3405;50.576;12.364;2023-09-19T03:32:05;1.65;;;1.25;;
6735;SDS011;3405;50.576;12.364;2023-09-19T03:34:31;13.18;;;2.58;;
6735;SDS011;3405;50.576;12.364;2023-09-19T03:36:57;26.15;;;6.07;;
6735;SDS011;3405;50.576;12.364;2023-09-19T03:39:23;24.00;;;4.85;;
6735;SDS011;3405;50.576;12.364;2023-09-19T03:41:49;19.23;;;3.53;;
6735;SDS011;3405;50.576;12.364;2023-09-19T03:44:14;13.95;;;2.90;;
6735;SDS011;3405;50.576;12.364;2023-09-19T03:46:40;32.40;;;6.72;;
6735;SDS011;3405;50.576;12.364;2023-09-19T03:49:06;33.55;;;6.78;;
6735;SDS011;3405;50.576;12.364;2023-09-19T03:51:33;27.25;;;5.68;;
6735;SDS011;3405;50.576;12.364;2023-09-19T03:53:59;13.32;;;3.17;;
6735;SDS011;3405;50.576;12.364;2023-09-19T03:56:25;8.35;;;2.58;;
6735;SDS011;3405;50.576;12.364;2023-09-19T03:58:51;6.72;;;2.03;;
6735;SDS011;3405;50.576;12.364;2023-09-19T04:01:17;10.60;;;2.17;;
6735;SDS011;3405;50.576;12.364;2023-09-19T04:03:43;5.97;;;1.80;;
6735;SDS011;3405;50.576;12.364;2023-09-19T04:06:16;10.32;;;2.22;;
6735;SDS011;3405;50.576;12.364;2023-09-19T04:08:42;7.00;;;2.20;;
6735;SDS011;3405;50.576;12.364;2023-09-19T04:11:09;8.32;;;2.20;;
6735;SDS011;3405;50.576;12.364;2023-09-19T04:13:35;8.27;;;2.05;;
6735;SDS011;3405;50.576;12.364;2023-09-19T04:16:01;5.70;;;1.70;;
6735;SDS011;3405;50.576;12.364;2023-09-19T04:18:28;4.85;;;1.42;;
6735;SDS011;3405;50.576;12.364;2023-09-19T04:20:57;4.40;;;1.40;;
6735;SDS011;3405;50.576;12.364;2023-09-19T04:23:23;4.35;;;1.60;;
6735;SDS011;3405;50.576;12.364;2023-09-19T04:25:49;3.75;;;1.30;;
6735;SDS011;3405;50.576;12.364;2023-09-19T04:28:16;5.03;;;1.50;;
6735;SDS011;3405;50.576;12.364;2023-09-19T04:30:42;3.42;;;1.20;;
6735;SDS011;3405;50.576;12.364;2023-09-19T04:33:08;4.13;;;1.40;;
6735;SDS011;3405;50.576;12.364;2023-09-19T04:35:34;2.15;;;1.17;;
6735;SDS011;3405;50.576;12.364;2023-09-19T04:38:00;4.68;;;1.20;;
6735;SDS011;3405;50.576;12.364;2023-09-19T04:40:28;4.25;;;1.42;;
6735;SDS011;3405;50.576;12.364;2023-09-19T04:42:54;2.45;;;1.08;;
6735;SDS011;3405;50.576;12.364;2023-09-19T04:45:24;1.23;;;0.90;;
6735;SDS011;3405;50.576;12.364;2023-09-19T04:47:51;3.22;;;1.20;;
6735;SDS011;3405;50.576;12.364;2023-09-19T04:50:18;3.00;;;1.60;;
6735;SDS011;3405;50.576;12.364;2023-09-19T04:52:46;5.65;;;1.15;;
6735;SDS011;3405;50.576;12.364;2023-09-19T04:55:16;1.58;;;1.00;;
6735;SDS011;3405;50.576;12.364;2023-09-19T04:57:48;6.82;;;1.20;;
6735;SDS011;3405;50.576;12.364;2023-09-19T05:00:15;1.00;;;0.90;;
6735;SDS011;3405;50.576;12.364;2023-09-19T05:02:42;3.83;;;1.50;;
6735;SDS011;3405;50.576;12.364;2023-09-19T05:05:09;5.13;;;1.08;;
6735;SDS011;3405;50.576;12.364;2023-09-19T05:07:40;1.80;;;1.10;;
6735;SDS011;3405;50.576;12.364;2023-09-19T05:10:06;2.15;;;1.13;;
6735;SDS011;3405;50.576;12.364;2023-09-19T05:12:35;1.48;;;0.85;;
6735;SDS011;3405;50.576;12.364;2023-09-19T05:15:04;0.95;;;0.90;;
6735;SDS011;3405;50.576;12.364;2023-09-19T05:17:32;1.40;;;0.90;;
6735;SDS011;3405;50.576;12.364;2023-09-19T05:19:58;0.85;;;0.85;;
6735;SDS011;3405;50.576;12.364;2023-09-19T05:22:30;4.05;;;1.10;;
6735;SDS011;3405;50.576;12.364;2023-09-19T05:24:57;0.95;;;0.82;;
6735;SDS011;3405;50.576;12.364;2023-09-19T05:27:24;1.67;;;0.90;;
6735;SDS011;3405;50.576;12.364;2023-09-19T05:29:50;1.17;;;0.80;;
6735;SDS011;3405;50.576;12.364;2023-09-19T05:32:18;1.63;;;1.02;;
6735;SDS011;3405;50.576;12.364;2023-09-19T05:34:44;3.50;;;1.02;;
6735;SDS011;3405;50.576;12.364;2023-09-19T05:37:11;5.55;;;1.33;;
6735;SDS011;3405;50.576;12.364;2023-09-19T05:39:38;0.90;;;0.90;;
6735;SDS011;3405;50.576;12.364;2023-09-19T05:42:04;1.63;;;0.98;;
6735;SDS011;3405;50.576;12.364;2023-09-19T05:44:30;2.45;;;0.82;;
6735;SDS011;3405;50.576;12.364;2023-09-19T05:46:58;2.30;;;0.95;;
6735;SDS011;3405;50.576;12.364;2023-09-19T05:49:24;1.10;;;0.90;;
6735;SDS011;3405;50.576;12.364;2023-09-19T05:51:50;1.38;;;1.20;;
6735;SDS011;3405;50.576;12.364;2023-09-19T05:54:19;0.98;;;0.80;;
6735;SDS011;3405;50.576;12.364;2023-09-19T05:56:45;0.70;;;0.70;;
6735;SDS011;3405;50.576;12.364;2023-09-19T05:59:12;2.03;;;1.00;;
6735;SDS011;3405;50.576;12.364;2023-09-19T06:01:40;1.90;;;0.80;;
6735;SDS011;3405;50.576;12.364;2023-09-19T06:04:07;2.60;;;1.00;;
6735;SDS011;3405;50.576;12.364;2023-09-19T06:06:33;3.05;;;0.93;;
6735;SDS011;3405;50.576;12.364;2023-09-19T06:09:05;2.17;;;0.80;;
6735;SDS011;3405;50.576;12.364;2023-09-19T06:11:31;1.73;;;0.80;;
6735;SDS011;3405;50.576;12.364;2023-09-19T06:14:03;1.75;;;1.00;;
6735;SDS011;3405;50.576;12.364;2023-09-19T06:16:29;1.75;;;0.80;;
6735;SDS011;3405;50.576;12.364;2023-09-19T06:18:57;0.60;;;0.60;;
6735;SDS011;3405;50.576;12.364;2023-09-19T06:21:24;0.80;;;0.80;;
6735;SDS011;3405;50.576;12.364;2023-09-19T06:23:51;1.80;;;0.80;;
6735;SDS011;3405;50.576;12.364;2023-09-19T06:26:17;3.47;;;1.20;;
6735;SDS011;3405;50.576;12.364;2023-09-19T06:28:43;1.25;;;0.73;;
6735;SDS011;3405;50.576;12.364;2023-09-19T06:31:09;1.15;;;0.90;;
6735;SDS011;3405;50.576;12.364;2023-09-19T06:33:38;0.82;;;0.70;;
6735;SDS011;3405;50.576;12.364;2023-09-19T06:36:05;1.88;;;0.93;;
6735;SDS011;3405;50.576;12.364;2023-09-19T06:38:31;1.05;;;0.73;;
6735;SDS011;3405;50.576;12.364;2023-09-19T06:40:59;0.80;;;0.80;;
6735;SDS011;3405;50.576;12.364;2023-09-19T06:43:26;1.25;;;0.90;;
6735;SDS011;3405;50.576;12.364;2023-09-19T06:45:53;1.65;;;0.80;;
6735;SDS011;3405;50.576;12.364;2023-09-19T06:48:19;1.45;;;0.82;;
6735;SDS011;3405;50.576;12.364;2023-09-19T06:50:46;1.88;;;1.10;;
6735;SDS011;3405;50.576;12.364;2023-09-19T06:53:13;3.60;;;1.48;;
6735;SDS011;3405;50.576;12.364;2023-09-19T06:55:39;1.17;;;0.73;;
6735;SDS011;3405;50.576;12.364;2023-09-19T06:58:05;1.52;;;0.90;;
6735;SDS011;3405;50.576;12.364;2023-09-19T07:00:31;2.83;;;1.10;;
6735;SDS011;3405;50.576;12.364;2023-09-19T07:03:01;0.98;;;0.80;;
6735;SDS011;3405;50.576;12.364;2023-09-19T07:05:29;3.38;;;1.00;;
6735;SDS011;3405;50.576;12.364;2023-09-19T07:07:56;1.13;;;0.77;;
6735;SDS011;3405;50.576;12.364;2023-09-19T07:10:24;1.13;;;1.00;;
6735;SDS011;3405;50.576;12.364;2023-09-19T07:13:00;2.08;;;1.17;;
6735;SDS011;3405;50.576;12.364;2023-09-19T07:15:27;0.70;;;0.70;;
6735;SDS011;3405;50.576;12.364;2023-09-19T07:17:53;1.40;;;0.90;;
6735;SDS011;3405;50.576;12.364;2023-09-19T07:20:21;1.27;;;0.90;;
6735;SDS011;3405;50.576;12.364;2023-09-19T07:22:46;3.25;;;1.10;;
6735;SDS011;3405;50.576;12.364;2023-09-19T07:25:13;1.70;;;1.00;;
6735;SDS011;3405;50.576;12.364;2023-09-19T07:27:40;2.13;;;1.00;;
6735;SDS011;3405;50.576;12.364;2023-09-19T07:30:06;2.42;;;1.00;;
6735;SDS011;3405;50.576;12.364;2023-09-19T07:32:33;1.25;;;1.00;;
6735;SDS011;3405;50.576;12.364;2023-09-19T07:35:01;1.33;;;1.00;;
6735;SDS011;3405;50.576;12.364;2023-09-19T07:37:28;1.35;;;1.10;;
6735;SDS011;3405;50.576;12.364;2023-09-19T07:39:56;1.15;;;0.70;;
6735;SDS011;3405;50.576;12.364;2023-09-19T07:42:22;2.33;;;0.70;;
6735;SDS011;3405;50.576;12.364;2023-09-19T07:44:48;1.10;;;0.85;;
6735;SDS011;3405;50.576;12.364;2023-09-19T07:47:16;2.00;;;1.17;;
6735;SDS011;3405;50.576;12.364;2023-09-19T07:49:42;1.63;;;0.90;;
6735;SDS011;3405;50.576;12.364;2023-09-19T07:52:08;1.73;;;0.93;;
6735;SDS011;3405;50.576;12.364;2023-09-19T07:54:35;1.92;;;0.90;;
6735;SDS011;3405;50.576;12.364;2023-09-19T07:57:02;2.22;;;0.95;;
6735;SDS011;3405;50.576;12.364;2023-09-19T07:59:28;1.60;;;0.98;;
6735;SDS011;3405;50.576;12.364;2023-09-19T08:01:54;1.92;;;1.05;;
6735;SDS011;3405;50.576;12.364;2023-09-19T08:04:20;1.20;;;0.90;;
6735;SDS011;3405;50.576;12.364;2023-09-19T08:06:46;3.72;;;1.10;;
6735;SDS011;3405;50.576;12.364;2023-09-19T08:09:12;1.77;;;0.70;;
6735;SDS011;3405;50.576;12.364;2023-09-19T08:11:45;3.22;;;1.00;;
6735;SDS011;3405;50.576;12.364;2023-09-19T08:14:11;1.80;;;1.00;;
6735;SDS011;3405;50.576;12.364;2023-09-19T08:16:39;1.23;;;0.80;;
6735;SDS011;3405;50.576;12.364;2023-09-19T08:19:05;1.27;;;0.85;;
6735;SDS011;3405;50.576;12.364;2023-09-19T08:21:31;1.52;;;1.40;;
6735;SDS011;3405;50.576;12.364;2023-09-19T08:23:57;1.08;;;0.82;;
6735;SDS011;3405;50.576;12.364;2023-09-19T08:26:23;1.77;;;0.98;;
6735;SDS011;3405;50.576;12.364;2023-09-19T08:28:49;0.85;;;0.73;;
6735;SDS011;3405;50.576;12.364;2023-09-19T08:31:16;1.10;;;0.70;;
6735;SDS011;3405;50.576;12.364;2023-09-19T08:33:42;1.27;;;1.00;;
6735;SDS011;3405;50.576;12.364;2023-09-19T08:36:15;0.60;;;0.60;;
6735;SDS011;3405;50.576;12.364;2023-09-19T08:38:41;0.95;;;0.60;;
6735;SDS011;3405;50.576;12.364;2023-09-19T08:41:07;3.45;;;0.90;;
6735;SDS011;3405;50.576;12.364;2023-09-19T08:43:33;3.30;;;0.75;;
6735;SDS011;3405;50.576;12.364;2023-09-19T08:46:09;0.82;;;0.65;;
6735;SDS011;3405;50.576;12.364;2023-09-19T08:48:39;2.75;;;0.40;;
6735;SDS011;3405;50.576;12.364;2023-09-19T08:51:10;0.95;;;0.70;;
6735;SDS011;3405;50.576;12.364;2023-09-19T08:53:54;1.17;;;0.70;;
6735;SDS011;3405;50.576;12.364;2023-09-19T08:56:24;3.22;;;0.63;;
6735;SDS011;3405;50.576;12.364;2023-09-19T08:59:10;1.08;;;0.77;;
6735;SDS011;3405;50.576;12.364;2023-09-19T09:01:36;0.75;;;0.60;;
6735;SDS011;3405;50.576;12.364;2023-09-19T09:04:06;0.60;;;0.57;;
6735;SDS011;3405;50.576;12.364;2023-09-19T09:06:34;1.10;;;0.60;;
6735;SDS011;3405;50.576;12.364;2023-09-19T09:09:00;1.98;;;1.00;;
6735;SDS011;3405;50.576;12.364;2023-09-19T09:11:26;1.02;;;0.80;;
6735;SDS011;3405;50.576;12.364;2023-09-19T09:13:53;1.20;;;0.85;;
6735;SDS011;3405;50.576;12.364;2023-09-19T09:16:19;0.77;;;0.77;;
6735;SDS011;3405;50.576;12.364;2023-09-19T09:18:45;0.77;;;0.70;;
6735;SDS011;3405;50.576;12.364;2023-09-19T09:21:12;0.63;;;0.63;;
6735;SDS011;3405;50.576;12.364;2023-09-19T09:23:39;1.63;;;0.60;;
6735;SDS011;3405;50.576;12.364;2023-09-19T09:26:05;0.57;;;0.57;;
6735;SDS011;3405;50.576;12.364;2023-09-19T09:28:33;2.00;;;0.70;;
6735;SDS011;3405;50.576;12.364;2023-09-19T09:31:01;0.50;;;0.50;;
6735;SDS011;3405;50.576;12.364;2023-09-19T09:33:34;0.70;;;0.60;;
6735;SDS011;3405;50.576;12.364;2023-09-19T09:36:01;0.88;;;0.50;;
6735;SDS011;3405;50.576;12.364;2023-09-19T09:38:47;0.93;;;0.60;;
6735;SDS011;3405;50.576;12.364;2023-09-19T09:41:13;0.55;;;0.52;;
6735;SDS011;3405;50.576;12.364;2023-09-19T09:43:52;0.85;;;0.50;;
6735;SDS011;3405;50.576;12.364;2023-09-19T09:46:18;2.85;;;0.80;;
6735;SDS011;3405;50.576;12.364;2023-09-19T09:49:00;1.20;;;0.57;;
6735;SDS011;3405;50.576;12.364;2023-09-19T09:52:17;1.02;;;0.60;;
6735;SDS011;3405;50.576;12.364;2023-09-19T09:55:01;0.80;;;0.80;;
6735;SDS011;3405;50.576;12.364;2023-09-19T09:57:30;1.77;;;0.65;;
6735;SDS011;3405;50.576;12.364;2023-09-19T09:59:58;1.35;;;0.70;;
6735;SDS011;3405;50.576;12.364;2023-09-19T10:02:40;0.82;;;0.50;;
6735;SDS011;3405;50.576;12.364;2023-09-19T10:05:16;0.98;;;0.98;;
6735;SDS011;3405;50.576;12.364;2023-09-19T10:07:49;1.00;;;0.60;;
6735;SDS011;3405;50.576;12.364;2023-09-19T10:10:31;0.90;;;0.43;;
6735;SDS011;3405;50.576;12.364;2023-09-19T10:13:09;3.70;;;0.93;;
6735;SDS011;3405;50.576;12.364;2023-09-19T10:15:40;1.48;;;0.70;;
6735;SDS011;3405;50.576;12.364;2023-09-19T10:18:11;1.13;;;0.70;;
6735;SDS011;3405;50.576;12.364;2023-09-19T10:20:43;1.08;;;0.80;;
6735;SDS011;3405;50.576;12.364;2023-09-19T10:23:10;2.00;;;0.70;;
6735;SDS011;3405;50.576;12.364;2023-09-19T10:25:41;1.33;;;0.70;;
6735;SDS011;3405;50.576;12.364;2023-09-19T10:28:08;1.75;;;0.63;;
6735;SDS011;3405;50.576;12.364;2023-09-19T10:30:38;1.45;;;0.63;;
6735;SDS011;3405;50.576;12.364;2023-09-19T10:33:09;0.82;;;0.68;;
6735;SDS011;3405;50.576;12.364;2023-09-19T10:35:37;1.77;;;0.80;;
6735;SDS011;3405;50.576;12.364;2023-09-19T10:38:06;0.88;;;0.70;;
6735;SDS011;3405;50.576;12.364;2023-09-19T10:40:33;1.20;;;0.77;;
6735;SDS011;3405;50.576;12.364;2023-09-19T10:43:04;2.40;;;0.82;;
6735;SDS011;3405;50.576;12.364;2023-09-19T10:45:31;1.27;;;0.80;;
6735;SDS011;3405;50.576;12.364;2023-09-19T10:47:58;1.33;;;0.70;;
6735;SDS011;3405;50.576;12.364;2023-09-19T10:50:24;1.00;;;0.77;;
6735;SDS011;3405;50.576;12.364;2023-09-19T10:52:51;0.70;;;0.70;;
6735;SDS011;3405;50.576;12.364;2023-09-19T10:55:23;2.15;;;0.73;;
6735;SDS011;3405;50.576;12.364;2023-09-19T10:57:53;0.60;;;0.60;;
6735;SDS011;3405;50.576;12.364;2023-09-19T11:00:22;1.25;;;0.80;;
6735;SDS011;3405;50.576;12.364;2023-09-19T11:05:42;1.58;;;0.80;;
6735;SDS011;3405;50.576;12.364;2023-09-19T11:08:09;1.00;;;0.90;;
6735;SDS011;3405;50.576;12.364;2023-09-19T11:10:49;4.13;;;1.05;;
6735;SDS011;3405;50.576;12.364;2023-09-19T11:13:29;1.73;;;0.80;;
6735;SDS011;3405;50.576;12.364;2023-09-19T11:26:47;1.63;;;1.00;;
6735;SDS011;3405;50.576;12.364;2023-09-19T11:29:25;2.88;;;0.98;;
6735;SDS011;3405;50.576;12.364;2023-09-19T11:31:51;2.35;;;0.90;;
6735;SDS011;3405;50.576;12.364;2023-09-19T11:39:39;1.52;;;0.93;;
6735;SDS011;3405;50.576;12.364;2023-09-19T11:44:52;1.27;;;0.93;;
6735;SDS011;3405;50.576;12.364;2023-09-19T11:47:20;4.70;;;1.45;;
6735;SDS011;3405;50.576;12.364;2023-09-19T11:49:49;4.05;;;1.25;;
6735;SDS011;3405;50.576;12.364;2023-09-19T11:52:21;5.68;;;1.00;;
6735;SDS011;3405;50.576;12.364;2023-09-19T11:54:53;1.58;;;1.05;;
6735;SDS011;3405;50.576;12.364;2023-09-19T11:57:22;2.55;;;0.93;;
6735;SDS011;3405;50.576;12.364;2023-09-19T11:59:48;1.75;;;0.98;;
6735;SDS011;3405;50.576;12.364;2023-09-19T12:02:17;5.47;;;0.90;;
6735;SDS011;3405;50.576;12.364;2023-09-19T12:04:46;2.47;;;1.08;;
6735;SDS011;3405;50.576;12.364;2023-09-19T12:07:15;1.70;;;1.45;;
6735;SDS011;3405;50.576;12.364;2023-09-19T12:09:42;2.33;;;0.93;;
6735;SDS011;3405;50.576;12.364;2023-09-19T12:12:24;3.17;;;1.10;;
6735;SDS011;3405;50.576;12.364;2023-09-19T12:14:55;1.33;;;1.00;;
6735;SDS011;3405;50.576;12.364;2023-09-19T12:17:23;1.27;;;1.10;;
6735;SDS011;3405;50.576;12.364;2023-09-19T12:19:53;1.23;;;0.73;;
6735;SDS011;3405;50.576;12.364;2023-09-19T12:22:19;2.05;;;1.15;;
6735;SDS011;3405;50.576;12.364;2023-09-19T12:24:45;1.67;;;1.05;;
6735;SDS011;3405;50.576;12.364;2023-09-19T12:27:12;2.92;;;1.15;;
6735;SDS011;3405;50.576;12.364;2023-09-19T12:29:42;1.27;;;0.95;;
6735;SDS011;3405;50.576;12.364;2023-09-19T12:32:08;1.52;;;1.00;;
6735;SDS011;3405;50.576;12.364;2023-09-19T12:34:34;1.73;;;1.20;;
6735;SDS011;3405;50.576;12.364;2023-09-19T12:39:46;1.50;;;1.13;;
6735;SDS011;3405;50.576;12.364;2023-09-19T12:42:14;1.42;;;1.20;;
6735;SDS011;3405;50.576;12.364;2023-09-19T12:44:44;1.15;;;0.98;;
6735;SDS011;3405;50.576;12.364;2023-09-19T12:47:11;1.70;;;1.58;;
6735;SDS011;3405;50.576;12.364;2023-09-19T12:50:04;1.80;;;1.08;;
6735;SDS011;3405;50.576;12.364;2023-09-19T12:52:23;1.73;;;1.15;;
6735;SDS011;3405;50.576;12.364;2023-09-19T12:54:51;2.40;;;1.10;;
6735;SDS011;3405;50.576;12.364;2023-09-19T12:57:23;2.35;;;1.02;;
6735;SDS011;3405;50.576;12.364;2023-09-19T12:59:52;2.10;;;1.08;;
6735;SDS011;3405;50.576;12.364;2023-09-19T13:02:18;1.83;;;1.25;;
6735;SDS011;3405;50.576;12.364;2023-09-19T13:04:52;4.00;;;1.20;;
6735;SDS011;3405;50.576;12.364;2023-09-19T13:07:46;4.30;;;1.33;;
6735;SDS011;3405;50.576;12.364;2023-09-19T13:10:12;2.50;;;1.50;;
6735;SDS011;3405;50.576;12.364;2023-09-19T13:12:42;3.15;;;1.70;;
6735;SDS011;3405;50.576;12.364;2023-09-19T13:15:12;3.53;;;1.30;;
6735;SDS011;3405;50.576;12.364;2023-09-19T13:17:44;3.13;;;1.27;;
6735;SDS011;3405;50.576;12.364;2023-09-19T13:20:23;1.92;;;1.30;;
6735;SDS011;3405;50.576;12.364;2023-09-19T13:22:52;3.30;;;1.63;;
6735;SDS011;3405;50.576;12.364;2023-09-19T13:25:35;3.63;;;1.20;;
6735;SDS011;3405;50.576;12.364;2023-09-19T13:28:01;3.60;;;1.65;;
6735;SDS011;3405;50.576;12.364;2023-09-19T13:30:29;2.17;;;1.33;;
6735;SDS011;3405;50.576;12.364;2023-09-19T13:33:06;2.45;;;1.60;;
6735;SDS011;3405;50.576;12.364;2023-09-19T13:35:32;1.70;;;1.40;;
6735;SDS011;3405;50.576;12.364;2023-09-19T13:37:58;1.27;;;1.17;;
6735;SDS011;3405;50.576;12.364;2023-09-19T13:40:25;1.58;;;1.30;;
6735;SDS011;3405;50.576;12.364;2023-09-19T13:42:55;2.13;;;1.55;;
6735;SDS011;3405;50.576;12.364;2023-09-19T13:45:21;2.95;;;1.40;;
6735;SDS011;3405;50.576;12.364;2023-09-19T13:47:49;3.28;;;1.48;;
6735;SDS011;3405;50.576;12.364;2023-09-19T13:50:15;1.65;;;1.50;;
6735;SDS011;3405;50.576;12.364;2023-09-19T13:52:43;5.32;;;1.73;;
6735;SDS011;3405;50.576;12.364;2023-09-19T13:55:09;2.40;;;1.50;;
6735;SDS011;3405;50.576;12.364;2023-09-19T13:57:35;2.90;;;1.50;;
6735;SDS011;3405;50.576;12.364;2023-09-19T14:00:01;1.30;;;1.17;;
6735;SDS011;3405;50.576;12.364;2023-09-19T14:02:29;3.28;;;1.90;;
6735;SDS011;3405;50.576;12.364;2023-09-19T14:04:56;1.98;;;1.58;;
6735;SDS011;3405;50.576;12.364;2023-09-19T14:07:22;2.67;;;1.60;;
6735;SDS011;3405;50.576;12.364;2023-09-19T14:09:48;3.53;;;1.92;;
6735;SDS011;3405;50.576;12.364;2023-09-19T14:12:14;5.47;;;1.90;;
6735;SDS011;3405;50.576;12.364;2023-09-19T14:14:40;5.25;;;1.80;;
6735;SDS011;3405;50.576;12.364;2023-09-19T14:17:07;3.00;;;1.90;;
6735;SDS011;3405;50.576;12.364;2023-09-19T14:19:34;2.20;;;1.88;;
6735;SDS011;3405;50.576;12.364;2023-09-19T14:22:01;4.03;;;2.17;;
6735;SDS011;3405;50.576;12.364;2023-09-19T14:24:32;2.13;;;1.23;;
6735;SDS011;3405;50.576;12.364;2023-09-19T14:26:58;4.82;;;1.88;;
6735;SDS011;3405;50.576;12.364;2023-09-19T14:29:24;2.58;;;1.75;;
6735;SDS011;3405;50.576;12.364;2023-09-19T14:31:50;3.85;;;1.50;;
6735;SDS011;3405;50.576;12.364;2023-09-19T14:34:17;3.60;;;1.60;;
6735;SDS011;3405;50.576;12.364;2023-09-19T14:36:44;2.67;;;1.60;;
6735;SDS011;3405;50.576;12.364;2023-09-19T14:39:10;4.50;;;1.30;;
6735;SDS011;3405;50.576;12.364;2023-09-19T14:41:36;4.03;;;1.80;;
6735;SDS011;3405;50.576;12.364;2023-09-19T14:44:02;2.22;;;1.30;;
6735;SDS011;3405;50.576;12.364;2023-09-19T14:46:30;3.40;;;1.80;;
6735;SDS011;3405;50.576;12.364;2023-09-19T14:48:56;3.80;;;1.65;;
6735;SDS011;3405;50.576;12.364;2023-09-19T14:51:24;2.67;;;1.90;;
6735;SDS011;3405;50.576;12.364;2023-09-19T14:53:50;3.88;;;1.95;;
6735;SDS011;3405;50.576;12.364;2023-09-19T14:56:16;2.92;;;1.73;;
6735;SDS011;3405;50.576;12.364;2023-09-19T14:58:44;3.75;;;1.77;;
6735;SDS011;3405;50.576;12.364;2023-09-19T15:01:12;1.98;;;1.60;;
6735;SDS011;3405;50.576;12.364;2023-09-19T15:03:39;5.07;;;1.60;;
6735;SDS011;3405;50.576;12.364;2023-09-19T15:06:06;2.63;;;1.80;;
6735;SDS011;3405;50.576;12.364;2023-09-19T15:08:34;3.65;;;1.77;;
6735;SDS011;3405;50.576;12.364;2023-09-19T15:11:03;3.30;;;1.70;;
6735;SDS011;3405;50.576;12.364;2023-09-19T15:13:30;3.50;;;1.95;;
6735;SDS011;3405;50.576;12.364;2023-09-19T15:16:03;3.10;;;1.80;;
6735;SDS011;3405;50.576;12.364;2023-09-19T15:18:29;3.22;;;1.80;;
6735;SDS011;3405;50.576;12.364;2023-09-19T15:20:56;4.53;;;2.03;;
6735;SDS011;3405;50.576;12.364;2023-09-19T15:23:22;2.95;;;1.90;;
6735;SDS011;3405;50.576;12.364;2023-09-19T15:25:49;3.00;;;1.50;;
6735;SDS011;3405;50.576;12.364;2023-09-19T15:28:15;2.65;;;1.58;;
6735;SDS011;3405;50.576;12.364;2023-09-19T15:30:41;2.95;;;1.90;;
6735;SDS011;3405;50.576;12.364;2023-09-19T15:33:07;3.17;;;1.60;;
6735;SDS011;3405;50.576;12.364;2023-09-19T15:35:32;3.72;;;2.03;;
6735;SDS011;3405;50.576;12.364;2023-09-19T15:38:01;4.07;;;1.48;;
6735;SDS011;3405;50.576;12.364;2023-09-19T15:40:27;2.53;;;1.50;;
6735;SDS011;3405;50.576;12.364;2023-09-19T15:42:54;3.75;;;1.70;;
6735;SDS011;3405;50.576;12.364;2023-09-19T15:45:21;3.85;;;1.90;;